sensor_id;sensor_type;location;lat;lon;timestamp;pressure;altitude;pressure_sealevel;temperature;humidity
40908;BME280;51055;59.436;24.778;2023-04-23T00:01:45;101219.59;;;8.10;61.09
40908;BME280;51055;59.436;24.778;2023-04-23T00:04:14;101212.72;;;8.08;61.33
40908;BME280;51055;59.436;24.778;2023-04-23T00:06:45;101211.38;;;8.01;61.81
40908;BME280;51055;59.436;24.778;2023-04-23T00:09:14;101211.06;;;8.05;61.60
40908;BME280;51055;59.436;24.778;2023-04-23T00:11:43;101202.00;;;7.95;61.95
40908;BME280;51055;59.436;24.778;2023-04-23T00:14:11;101200.53;;;7.91;62.22
40908;BME280;51055;59.436;24.778;2023-04-23T00:16:39;101203.53;;;7.85;62.57
40908;BME280;51055;59.436;24.778;2023-04-23T00:19:07;101202.88;;;7.96;62.63
40908;BME280;51055;59.436;24.778;2023-04-23T00:21:34;101200.16;;;7.97;62.20
40908;BME280;51055;59.436;24.778;2023-04-23T00:24:02;101197.03;;;7.91;62.74
40908;BME280;51055;59.436;24.778;2023-04-23T00:26:30;101193.63;;;7.88;62.64
40908;BME280;51055;59.436;24.778;2023-04-23T00:28:57;101194.38;;;7.91;62.62
40908;BME280;51055;59.436;24.778;2023-04-23T00:31:25;101195.25;;;7.91;62.91
40908;BME280;51055;59.436;24.778;2023-04-23T00:33:53;101192.00;;;7.86;63.02
40908;BME280;51055;59.436;24.778;2023-04-23T00:36:22;101189.38;;;7.86;63.48
40908;BME280;51055;59.436;24.778;2023-04-23T00:38:50;101190.81;;;7.92;63.58
40908;BME280;51055;59.436;24.778;2023-04-23T00:41:18;101192.88;;;7.86;64.01
40908;BME280;51055;59.436;24.778;2023-04-23T00:43:45;101184.94;;;7.86;64.11
40908;BME280;51055;59.436;24.778;2023-04-23T00:46:13;101185.88;;;7.85;64.47
40908;BME280;51055;59.436;24.778;2023-04-23T00:48:44;101190.41;;;7.83;65.32
40908;BME280;51055;59.436;24.778;2023-04-23T00:51:12;101182.41;;;7.85;65.48
40908;BME280;51055;59.436;24.778;2023-04-23T00:53:40;101181.94;;;7.93;65.59
40908;BME280;51055;59.436;24.778;2023-04-23T00:56:07;101176.09;;;7.88;66.28
40908;BME280;51055;59.436;24.778;2023-04-23T00:58:36;101179.78;;;7.85;66.98
40908;BME280;51055;59.436;24.778;2023-04-23T01:01:04;101180.91;;;7.81;67.59
40908;BME280;51055;59.436;24.778;2023-04-23T01:03:33;101177.41;;;7.80;68.09
40908;BME280;51055;59.436;24.778;2023-04-23T01:06:03;101183.06;;;7.74;68.62
40908;BME280;51055;59.436;24.778;2023-04-23T01:08:31;101187.38;;;7.61;69.25
40908;BME280;51055;59.436;24.778;2023-04-23T01:11:00;101178.22;;;7.67;69.79
40908;BME280;51055;59.436;24.778;2023-04-23T01:13:28;101184.38;;;7.67;69.63
40908;BME280;51055;59.436;24.778;2023-04-23T01:15:56;101175.88;;;7.76;69.58
40908;BME280;51055;59.436;24.778;2023-04-23T01:18:24;101177.84;;;7.73;69.24
40908;BME280;51055;59.436;24.778;2023-04-23T01:20:51;101181.31;;;7.59;69.16
40908;BME280;51055;59.436;24.778;2023-04-23T01:23:19;101175.28;;;7.57;70.02
40908;BME280;51055;59.436;24.778;2023-04-23T01:25:47;101171.34;;;7.64;70.22
40908;BME280;51055;59.436;24.778;2023-04-23T01:28:15;101167.84;;;7.64;70.11
40908;BME280;51055;59.436;24.778;2023-04-23T01:30:44;101166.81;;;7.66;70.31
40908;BME280;51055;59.436;24.778;2023-04-23T01:33:12;101160.38;;;7.56;70.45
40908;BME280;51055;59.436;24.778;2023-04-23T01:35:40;101155.22;;;7.55;70.69
40908;BME280;51055;59.436;24.778;2023-04-23T01:38:09;101155.66;;;7.47;72.00
40908;BME280;51055;59.436;24.778;2023-04-23T01:40:37;101157.94;;;7.53;72.22
40908;BME280;51055;59.436;24.778;2023-04-23T01:43:07;101155.88;;;7.58;72.02
40908;BME280;51055;59.436;24.778;2023-04-23T01:45:35;101165.22;;;7.64;72.64
40908;BME280;51055;59.436;24.778;2023-04-23T01:48:03;101157.00;;;7.54;73.14
40908;BME280;51055;59.436;24.778;2023-04-23T01:50:31;101162.47;;;7.51;73.70
40908;BME280;51055;59.436;24.778;2023-04-23T01:52:59;101163.69;;;7.46;74.24
40908;BME280;51055;59.436;24.778;2023-04-23T01:55:26;101160.28;;;7.44;74.45
40908;BME280;51055;59.436;24.778;2023-04-23T01:57:54;101157.94;;;7.39;74.23
40908;BME280;51055;59.436;24.778;2023-04-23T02:00:22;101162.72;;;7.32;74.05
40908;BME280;51055;59.436;24.778;2023-04-23T02:02:50;101163.91;;;7.27;73.64
40908;BME280;51055;59.436;24.778;2023-04-23T02:05:20;101160.25;;;7.29;74.05
40908;BME280;51055;59.436;24.778;2023-04-23T02:07:49;101169.34;;;7.24;74.16
40908;BME280;51055;59.436;24.778;2023-04-23T02:10:17;101159.53;;;7.12;74.67
40908;BME280;51055;59.436;24.778;2023-04-23T02:12:46;101168.19;;;7.14;74.69
40908;BME280;51055;59.436;24.778;2023-04-23T02:15:14;101167.63;;;7.09;74.73
40908;BME280;51055;59.436;24.778;2023-04-23T02:17:42;101168.56;;;7.08;75.08
40908;BME280;51055;59.436;24.778;2023-04-23T02:20:10;101163.63;;;7.02;75.36
40908;BME280;51055;59.436;24.778;2023-04-23T02:22:40;101166.28;;;7.02;75.54
40908;BME280;51055;59.436;24.778;2023-04-23T02:25:08;101165.53;;;7.00;76.47
40908;BME280;51055;59.436;24.778;2023-04-23T02:27:36;101164.75;;;6.98;76.29
40908;BME280;51055;59.436;24.778;2023-04-23T02:30:05;101158.63;;;6.97;76.51
40908;BME280;51055;59.436;24.778;2023-04-23T02:32:35;101159.66;;;6.95;76.64
40908;BME280;51055;59.436;24.778;2023-04-23T02:35:04;101160.69;;;6.92;77.42
40908;BME280;51055;59.436;24.778;2023-04-23T02:37:32;101159.81;;;6.92;77.70
40908;BME280;51055;59.436;24.778;2023-04-23T02:40:00;101162.56;;;6.74;78.32
40908;BME280;51055;59.436;24.778;2023-04-23T02:42:28;101164.53;;;6.87;79.10
40908;BME280;51055;59.436;24.778;2023-04-23T02:44:56;101167.16;;;6.87;78.82
40908;BME280;51055;59.436;24.778;2023-04-23T02:47:23;101166.56;;;6.81;79.54
40908;BME280;51055;59.436;24.778;2023-04-23T02:49:51;101160.19;;;6.86;79.63
40908;BME280;51055;59.436;24.778;2023-04-23T02:52:19;101155.09;;;6.82;78.94
40908;BME280;51055;59.436;24.778;2023-04-23T02:54:47;101155.75;;;6.86;78.63
40908;BME280;51055;59.436;24.778;2023-04-23T02:57:15;101154.59;;;6.76;78.64
40908;BME280;51055;59.436;24.778;2023-04-23T02:59:43;101152.38;;;6.68;79.69
40908;BME280;51055;59.436;24.778;2023-04-23T03:02:10;101157.75;;;6.67;79.50
40908;BME280;51055;59.436;24.778;2023-04-23T03:04:38;101147.69;;;6.58;79.05
40908;BME280;51055;59.436;24.778;2023-04-23T03:07:06;101149.06;;;6.65;79.65
40908;BME280;51055;59.436;24.778;2023-04-23T03:09:34;101145.31;;;6.69;79.46
40908;BME280;51055;59.436;24.778;2023-04-23T03:12:01;101148.97;;;6.66;78.95
40908;BME280;51055;59.436;24.778;2023-04-23T03:14:29;101152.97;;;6.73;78.38
40908;BME280;51055;59.436;24.778;2023-04-23T03:16:57;101145.94;;;6.74;78.91
40908;BME280;51055;59.436;24.778;2023-04-23T03:19:25;101149.38;;;6.74;78.18
40908;BME280;51055;59.436;24.778;2023-04-23T03:21:53;101157.28;;;6.74;78.28
40908;BME280;51055;59.436;24.778;2023-04-23T03:24:20;101149.81;;;6.82;78.53
40908;BME280;51055;59.436;24.778;2023-04-23T03:26:48;101149.31;;;6.76;77.22
40908;BME280;51055;59.436;24.778;2023-04-23T03:29:15;101147.94;;;6.69;76.76
40908;BME280;51055;59.436;24.778;2023-04-23T03:31:43;101146.41;;;6.65;77.18
40908;BME280;51055;59.436;24.778;2023-04-23T03:34:10;101147.03;;;6.70;76.26
40908;BME280;51055;59.436;24.778;2023-04-23T03:36:38;101141.16;;;6.65;76.31
40908;BME280;51055;59.436;24.778;2023-04-23T03:39:05;101140.16;;;6.67;75.99
40908;BME280;51055;59.436;24.778;2023-04-23T03:41:34;101145.25;;;6.70;75.67
40908;BME280;51055;59.436;24.778;2023-04-23T03:44:01;101145.50;;;6.66;76.10
40908;BME280;51055;59.436;24.778;2023-04-23T03:46:29;101148.91;;;6.52;76.50
40908;BME280;51055;59.436;24.778;2023-04-23T03:48:56;101148.56;;;6.58;76.33
40908;BME280;51055;59.436;24.778;2023-04-23T03:51:24;101146.09;;;6.55;76.47
40908;BME280;51055;59.436;24.778;2023-04-23T03:53:53;101150.44;;;6.56;77.04
40908;BME280;51055;59.436;24.778;2023-04-23T03:56:21;101146.59;;;6.62;76.88
40908;BME280;51055;59.436;24.778;2023-04-23T03:58:51;101142.34;;;6.59;76.60
40908;BME280;51055;59.436;24.778;2023-04-23T04:01:19;101150.59;;;6.69;77.41
40908;BME280;51055;59.436;24.778;2023-04-23T04:03:47;101156.13;;;6.80;77.23
40908;BME280;51055;59.436;24.778;2023-04-23T04:06:14;101153.13;;;6.86;77.03
40908;BME280;51055;59.436;24.778;2023-04-23T04:08:42;101153.81;;;6.90;76.86
40908;BME280;51055;59.436;24.778;2023-04-23T04:11:10;101156.66;;;7.01;76.42
40908;BME280;51055;59.436;24.778;2023-04-23T04:13:37;101155.66;;;7.03;76.71
40908;BME280;51055;59.436;24.778;2023-04-23T04:16:05;101151.81;;;7.09;76.60
40908;BME280;51055;59.436;24.778;2023-04-23T04:18:33;101145.50;;;7.11;76.59
40908;BME280;51055;59.436;24.778;2023-04-23T04:21:00;101140.03;;;7.14;76.49
40908;BME280;51055;59.436;24.778;2023-04-23T04:23:28;101145.53;;;7.25;75.92
40908;BME280;51055;59.436;24.778;2023-04-23T04:25:56;101140.81;;;7.30;75.39
40908;BME280;51055;59.436;24.778;2023-04-23T04:28:26;101143.59;;;7.43;75.34
40908;BME280;51055;59.436;24.778;2023-04-23T04:30:54;101142.28;;;7.50;74.47
40908;BME280;51055;59.436;24.778;2023-04-23T04:33:24;101142.38;;;7.63;73.40
40908;BME280;51055;59.436;24.778;2023-04-23T04:35:52;101142.88;;;7.69;73.07
40908;BME280;51055;59.436;24.778;2023-04-23T04:38:21;101137.97;;;7.77;72.90
40908;BME280;51055;59.436;24.778;2023-04-23T04:40:48;101136.56;;;7.86;71.75
40908;BME280;51055;59.436;24.778;2023-04-23T04:43:17;101134.50;;;7.91;71.39
40908;BME280;51055;59.436;24.778;2023-04-23T04:45:44;101133.72;;;8.03;70.51
40908;BME280;51055;59.436;24.778;2023-04-23T04:48:12;101137.69;;;8.10;70.06
40908;BME280;51055;59.436;24.778;2023-04-23T04:50:40;101136.25;;;8.19;69.50
40908;BME280;51055;59.436;24.778;2023-04-23T04:53:08;101140.81;;;8.31;69.13
40908;BME280;51055;59.436;24.778;2023-04-23T04:55:35;101133.22;;;8.39;68.56
40908;BME280;51055;59.436;24.778;2023-04-23T04:58:03;101137.59;;;8.40;67.80
40908;BME280;51055;59.436;24.778;2023-04-23T05:00:31;101142.72;;;8.56;67.47
40908;BME280;51055;59.436;24.778;2023-04-23T05:02:59;101141.84;;;8.69;66.67
40908;BME280;51055;59.436;24.778;2023-04-23T05:05:27;101141.53;;;8.74;65.81
40908;BME280;51055;59.436;24.778;2023-04-23T05:07:55;101149.91;;;8.80;65.58
40908;BME280;51055;59.436;24.778;2023-04-23T05:10:25;101142.34;;;8.88;64.75
40908;BME280;51055;59.436;24.778;2023-04-23T05:12:55;101138.66;;;9.04;64.20
40908;BME280;51055;59.436;24.778;2023-04-23T05:15:23;101140.72;;;9.13;63.43
40908;BME280;51055;59.436;24.778;2023-04-23T05:17:52;101143.03;;;9.17;62.63
40908;BME280;51055;59.436;24.778;2023-04-23T05:20:21;101140.09;;;9.22;61.62
40908;BME280;51055;59.436;24.778;2023-04-23T05:22:48;101131.75;;;9.28;61.20
40908;BME280;51055;59.436;24.778;2023-04-23T05:25:16;101138.13;;;9.38;60.49
40908;BME280;51055;59.436;24.778;2023-04-23T05:27:43;101138.56;;;9.57;59.91
40908;BME280;51055;59.436;24.778;2023-04-23T05:30:13;101132.81;;;9.63;59.01
40908;BME280;51055;59.436;24.778;2023-04-23T05:32:41;101134.31;;;9.80;58.69
40908;BME280;51055;59.436;24.778;2023-04-23T05:35:08;101130.91;;;9.90;58.54
40908;BME280;51055;59.436;24.778;2023-04-23T05:37:36;101135.03;;;10.07;57.85
40908;BME280;51055;59.436;24.778;2023-04-23T05:40:04;101140.97;;;10.23;57.13
40908;BME280;51055;59.436;24.778;2023-04-23T05:42:34;101139.88;;;10.38;56.28
40908;BME280;51055;59.436;24.778;2023-04-23T05:45:02;101143.97;;;10.55;55.21
40908;BME280;51055;59.436;24.778;2023-04-23T05:47:34;101137.19;;;10.75;54.63
40908;BME280;51055;59.436;24.778;2023-04-23T05:50:02;101134.72;;;10.84;53.71
40908;BME280;51055;59.436;24.778;2023-04-23T05:52:29;101134.16;;;10.92;52.90
40908;BME280;51055;59.436;24.778;2023-04-23T05:54:59;101135.78;;;11.06;52.51
40908;BME280;51055;59.436;24.778;2023-04-23T05:57:27;101127.84;;;11.17;52.25
40908;BME280;51055;59.436;24.778;2023-04-23T05:59:57;101136.09;;;11.25;51.47
40908;BME280;51055;59.436;24.778;2023-04-23T06:02:24;101132.34;;;11.27;51.15
40908;BME280;51055;59.436;24.778;2023-04-23T06:04:52;101138.19;;;11.43;50.88
40908;BME280;51055;59.436;24.778;2023-04-23T06:07:20;101128.78;;;11.62;50.43
40908;BME280;51055;59.436;24.778;2023-04-23T06:09:48;101133.53;;;11.69;49.72
40908;BME280;51055;59.436;24.778;2023-04-23T06:12:16;101125.13;;;11.86;49.81
40908;BME280;51055;59.436;24.778;2023-04-23T06:14:44;101129.13;;;12.03;49.36
40908;BME280;51055;59.436;24.778;2023-04-23T06:17:12;101129.94;;;12.15;48.49
40908;BME280;51055;59.436;24.778;2023-04-23T06:19:40;101117.97;;;12.31;48.00
40908;BME280;51055;59.436;24.778;2023-04-23T06:22:08;101122.00;;;12.58;47.52
40908;BME280;51055;59.436;24.778;2023-04-23T06:24:36;101114.06;;;13.21;46.47
40908;BME280;51055;59.436;24.778;2023-04-23T06:27:03;101110.06;;;14.08;43.95
40908;BME280;51055;59.436;24.778;2023-04-23T06:29:31;101110.66;;;14.71;42.56
40908;BME280;51055;59.436;24.778;2023-04-23T06:32:02;101100.84;;;15.00;41.15
40908;BME280;51055;59.436;24.778;2023-04-23T06:34:29;101114.25;;;13.50;44.26
40908;BME280;51055;59.436;24.778;2023-04-23T06:36:57;101111.59;;;13.29;45.47
40908;BME280;51055;59.436;24.778;2023-04-23T06:39:25;101106.38;;;13.48;45.20
40908;BME280;51055;59.436;24.778;2023-04-23T06:41:53;101105.47;;;13.59;45.22
40908;BME280;51055;59.436;24.778;2023-04-23T06:44:21;101110.69;;;13.61;44.82
40908;BME280;51055;59.436;24.778;2023-04-23T06:46:48;101101.09;;;13.79;44.50
40908;BME280;51055;59.436;24.778;2023-04-23T06:49:17;101105.75;;;13.86;44.09
40908;BME280;51055;59.436;24.778;2023-04-23T06:51:45;101108.34;;;14.07;43.81
40908;BME280;51055;59.436;24.778;2023-04-23T06:54:12;101099.13;;;14.21;43.24
40908;BME280;51055;59.436;24.778;2023-04-23T06:56:40;101102.38;;;14.24;43.49
40908;BME280;51055;59.436;24.778;2023-04-23T06:59:07;101107.06;;;14.32;42.95
40908;BME280;51055;59.436;24.778;2023-04-23T07:01:35;101108.94;;;14.50;42.59
40908;BME280;51055;59.436;24.778;2023-04-23T07:04:03;101104.91;;;14.56;42.26
40908;BME280;51055;59.436;24.778;2023-04-23T07:06:34;101102.25;;;14.66;42.45
40908;BME280;51055;59.436;24.778;2023-04-23T07:09:02;101102.78;;;14.69;42.51
40908;BME280;51055;59.436;24.778;2023-04-23T07:11:30;101096.91;;;14.85;42.13
40908;BME280;51055;59.436;24.778;2023-04-23T07:14:01;101094.38;;;15.02;41.99
40908;BME280;51055;59.436;24.778;2023-04-23T07:16:29;101092.41;;;15.24;41.48
40908;BME280;51055;59.436;24.778;2023-04-23T07:19:00;101097.84;;;15.41;41.10
40908;BME280;51055;59.436;24.778;2023-04-23T07:21:29;101095.47;;;15.48;40.75
40908;BME280;51055;59.436;24.778;2023-04-23T07:23:57;101094.19;;;15.33;41.26
40908;BME280;51055;59.436;24.778;2023-04-23T07:26:34;101098.38;;;15.45;41.08
40908;BME280;51055;59.436;24.778;2023-04-23T07:29:03;101093.34;;;15.51;41.21
40908;BME280;51055;59.436;24.778;2023-04-23T07:31:33;101092.38;;;15.52;41.01
40908;BME280;51055;59.436;24.778;2023-04-23T07:34:01;101091.38;;;15.53;41.54
40908;BME280;51055;59.436;24.778;2023-04-23T07:36:29;101092.34;;;15.62;41.16
40908;BME280;51055;59.436;24.778;2023-04-23T07:38:57;101089.22;;;15.76;41.05
40908;BME280;51055;59.436;24.778;2023-04-23T07:41:25;101092.94;;;15.93;40.68
40908;BME280;51055;59.436;24.778;2023-04-23T07:43:52;101080.16;;;16.14;40.53
40908;BME280;51055;59.436;24.778;2023-04-23T07:46:20;101072.31;;;16.30;40.14
40908;BME280;51055;59.436;24.778;2023-04-23T07:48:48;101067.25;;;18.10;38.10
40908;BME280;51055;59.436;24.778;2023-04-23T07:51:16;101062.78;;;21.49;31.41
40908;BME280;51055;59.436;24.778;2023-04-23T07:53:44;101059.06;;;23.44;28.06
40908;BME280;51055;59.436;24.778;2023-04-23T07:56:13;101057.13;;;24.48;26.40
40908;BME280;51055;59.436;24.778;2023-04-23T07:58:41;101063.00;;;24.10;25.57
40908;BME280;51055;59.436;24.778;2023-04-23T08:01:08;101069.31;;;23.83;26.89
40908;BME280;51055;59.436;24.778;2023-04-23T08:03:36;101057.50;;;26.28;23.37
40908;BME280;51055;59.436;24.778;2023-04-23T08:06:04;101058.63;;;27.46;22.38
40908;BME280;51055;59.436;24.778;2023-04-23T08:08:32;101051.81;;;26.74;22.43
40908;BME280;51055;59.436;24.778;2023-04-23T08:11:00;101055.50;;;26.04;23.53
40908;BME280;51055;59.436;24.778;2023-04-23T08:13:28;101051.97;;;24.72;24.49
40908;BME280;51055;59.436;24.778;2023-04-23T08:15:56;101058.69;;;22.62;27.21
40908;BME280;51055;59.436;24.778;2023-04-23T08:18:24;101059.13;;;20.20;30.24
40908;BME280;51055;59.436;24.778;2023-04-23T08:20:53;101059.38;;;18.83;32.84
40908;BME280;51055;59.436;24.778;2023-04-23T08:23:21;101056.88;;;18.15;34.33
40908;BME280;51055;59.436;24.778;2023-04-23T08:25:48;101053.53;;;17.80;34.98
40908;BME280;51055;59.436;24.778;2023-04-23T08:28:17;101061.50;;;17.46;35.64
40908;BME280;51055;59.436;24.778;2023-04-23T08:30:46;101052.38;;;17.31;35.80
40908;BME280;51055;59.436;24.778;2023-04-23T08:33:14;101053.25;;;16.96;36.64
40908;BME280;51055;59.436;24.778;2023-04-23T08:35:41;101053.19;;;16.88;37.01
40908;BME280;51055;59.436;24.778;2023-04-23T08:38:09;101055.81;;;16.62;37.47
40908;BME280;51055;59.436;24.778;2023-04-23T08:40:37;101052.91;;;16.46;37.30
40908;BME280;51055;59.436;24.778;2023-04-23T08:43:18;101056.97;;;16.50;38.03
40908;BME280;51055;59.436;24.778;2023-04-23T08:45:47;101047.56;;;16.46;37.90
40908;BME280;51055;59.436;24.778;2023-04-23T08:48:15;101051.91;;;16.47;38.02
40908;BME280;51055;59.436;24.778;2023-04-23T08:50:43;101040.91;;;16.50;38.11
40908;BME280;51055;59.436;24.778;2023-04-23T08:53:17;101039.34;;;16.57;37.93
40908;BME280;51055;59.436;24.778;2023-04-23T08:55:48;101043.53;;;16.42;37.19
40908;BME280;51055;59.436;24.778;2023-04-23T08:58:17;101038.66;;;16.28;37.51
40908;BME280;51055;59.436;24.778;2023-04-23T09:00:46;101038.28;;;16.23;37.63
40908;BME280;51055;59.436;24.778;2023-04-23T09:03:15;101035.16;;;16.27;38.04
40908;BME280;51055;59.436;24.778;2023-04-23T09:05:43;101029.97;;;16.26;38.00
40908;BME280;51055;59.436;24.778;2023-04-23T09:08:11;101031.84;;;16.33;38.03
40908;BME280;51055;59.436;24.778;2023-04-23T09:10:39;101025.38;;;16.36;38.02
40908;BME280;51055;59.436;24.778;2023-04-23T09:13:11;101019.31;;;16.34;37.16
40908;BME280;51055;59.436;24.778;2023-04-23T09:15:41;101019.56;;;16.23;37.41
40908;BME280;51055;59.436;24.778;2023-04-23T09:18:10;101013.19;;;16.24;37.01
40908;BME280;51055;59.436;24.778;2023-04-23T09:20:37;101013.91;;;16.26;37.43
40908;BME280;51055;59.436;24.778;2023-04-23T09:23:06;101021.38;;;16.22;37.25
40908;BME280;51055;59.436;24.778;2023-04-23T09:25:34;101012.09;;;16.16;37.72
40908;BME280;51055;59.436;24.778;2023-04-23T09:28:06;101001.03;;;16.11;37.57
40908;BME280;51055;59.436;24.778;2023-04-23T09:30:52;101004.13;;;16.07;36.92
40908;BME280;51055;59.436;24.778;2023-04-23T09:33:20;100999.50;;;16.09;37.16
40908;BME280;51055;59.436;24.778;2023-04-23T09:35:48;101004.06;;;16.16;36.89
40908;BME280;51055;59.436;24.778;2023-04-23T09:38:18;101002.66;;;16.22;37.51
40908;BME280;51055;59.436;24.778;2023-04-23T09:40:46;100999.81;;;16.24;36.69
40908;BME280;51055;59.436;24.778;2023-04-23T09:43:14;101000.66;;;16.24;36.53
40908;BME280;51055;59.436;24.778;2023-04-23T09:45:48;100991.41;;;16.19;36.01
40908;BME280;51055;59.436;24.778;2023-04-23T09:48:16;100996.28;;;16.23;36.79
40908;BME280;51055;59.436;24.778;2023-04-23T09:50:44;100994.44;;;16.24;36.31
40908;BME280;51055;59.436;24.778;2023-04-23T09:53:12;100995.16;;;16.26;36.77
40908;BME280;51055;59.436;24.778;2023-04-23T09:55:40;100993.47;;;16.25;36.29
40908;BME280;51055;59.436;24.778;2023-04-23T09:58:12;100989.09;;;16.24;36.16
40908;BME280;51055;59.436;24.778;2023-04-23T10:00:42;100980.69;;;16.19;35.57
40908;BME280;51055;59.436;24.778;2023-04-23T10:03:10;100983.13;;;16.12;35.88
40908;BME280;51055;59.436;24.778;2023-04-23T10:05:42;100975.41;;;16.27;36.09
40908;BME280;51055;59.436;24.778;2023-04-23T10:08:13;100974.06;;;16.23;35.50
40908;BME280;51055;59.436;24.778;2023-04-23T10:10:43;100979.09;;;16.26;35.63
40908;BME280;51055;59.436;24.778;2023-04-23T10:13:26;100967.31;;;16.19;35.19
40908;BME280;51055;59.436;24.778;2023-04-23T10:15:54;100972.06;;;16.25;35.81
40908;BME280;51055;59.436;24.778;2023-04-23T10:18:36;100966.25;;;16.29;34.69
40908;BME280;51055;59.436;24.778;2023-04-23T10:21:05;100970.06;;;16.27;34.69
40908;BME280;51055;59.436;24.778;2023-04-23T10:23:35;100965.09;;;16.32;35.10
40908;BME280;51055;59.436;24.778;2023-04-23T10:26:05;100955.78;;;16.36;34.59
40908;BME280;51055;59.436;24.778;2023-04-23T10:28:34;100950.03;;;16.31;35.35
40908;BME280;51055;59.436;24.778;2023-04-23T10:31:02;100945.44;;;16.41;35.12
40908;BME280;51055;59.436;24.778;2023-04-23T10:33:32;100948.44;;;16.38;35.75
40908;BME280;51055;59.436;24.778;2023-04-23T10:36:13;100948.88;;;16.33;35.45
40908;BME280;51055;59.436;24.778;2023-04-23T10:38:41;100939.56;;;16.37;36.09
40908;BME280;51055;59.436;24.778;2023-04-23T10:41:28;100935.19;;;16.36;35.16
40908;BME280;51055;59.436;24.778;2023-04-23T10:43:57;100935.25;;;16.44;35.16
40908;BME280;51055;59.436;24.778;2023-04-23T10:46:28;100931.97;;;16.50;36.91
40908;BME280;51055;59.436;24.778;2023-04-23T10:49:13;100925.09;;;16.48;38.33
40908;BME280;51055;59.436;24.778;2023-04-23T10:51:44;100926.78;;;16.49;34.58
40908;BME280;51055;59.436;24.778;2023-04-23T10:54:33;100918.56;;;16.50;34.69
40908;BME280;51055;59.436;24.778;2023-04-23T10:57:05;100913.75;;;16.54;36.76
40908;BME280;51055;59.436;24.778;2023-04-23T10:59:37;100914.31;;;16.57;34.89
40908;BME280;51055;59.436;24.778;2023-04-23T11:02:09;100913.03;;;16.61;34.82
40908;BME280;51055;59.436;24.778;2023-04-23T11:04:45;100904.56;;;16.74;33.99
40908;BME280;51055;59.436;24.778;2023-04-23T11:07:14;100910.91;;;16.73;33.67
40908;BME280;51055;59.436;24.778;2023-04-23T11:09:45;100905.72;;;16.72;34.38
40908;BME280;51055;59.436;24.778;2023-04-23T11:14:48;100903.63;;;16.83;32.60
40908;BME280;51055;59.436;24.778;2023-04-23T11:22:41;100908.66;;;16.86;34.53
40908;BME280;51055;59.436;24.778;2023-04-23T11:25:10;100898.13;;;16.85;33.90
40908;BME280;51055;59.436;24.778;2023-04-23T11:27:40;100901.13;;;16.82;37.36
40908;BME280;51055;59.436;24.778;2023-04-23T11:32:45;100887.72;;;16.82;34.30
40908;BME280;51055;59.436;24.778;2023-04-23T11:35:23;100886.50;;;16.76;39.57
40908;BME280;51055;59.436;24.778;2023-04-23T11:37:55;100890.09;;;16.85;34.02
40908;BME280;51055;59.436;24.778;2023-04-23T11:40:24;100893.78;;;16.92;33.52
40908;BME280;51055;59.436;24.778;2023-04-23T11:42:53;100886.59;;;16.92;33.28
40908;BME280;51055;59.436;24.778;2023-04-23T11:45:26;100887.13;;;16.96;32.85
40908;BME280;51055;59.436;24.778;2023-04-23T11:47:57;100880.91;;;16.95;33.76
40908;BME280;51055;59.436;24.778;2023-04-23T11:50:27;100874.75;;;17.03;33.68
40908;BME280;51055;59.436;24.778;2023-04-23T11:53:02;100862.34;;;17.02;35.08
40908;BME280;51055;59.436;24.778;2023-04-23T11:55:30;100861.84;;;16.98;34.82
40908;BME280;51055;59.436;24.778;2023-04-23T11:57:58;100868.28;;;17.13;34.58
40908;BME280;51055;59.436;24.778;2023-04-23T12:00:27;100865.44;;;17.15;35.05
40908;BME280;51055;59.436;24.778;2023-04-23T12:02:59;100850.69;;;17.11;35.42
40908;BME280;51055;59.436;24.778;2023-04-23T12:05:32;100867.66;;;17.19;35.70
40908;BME280;51055;59.436;24.778;2023-04-23T12:10:44;100851.03;;;17.16;36.86
40908;BME280;51055;59.436;24.778;2023-04-23T12:13:24;100852.22;;;17.13;37.18
40908;BME280;51055;59.436;24.778;2023-04-23T12:15:55;100843.31;;;17.13;42.54
40908;BME280;51055;59.436;24.778;2023-04-23T12:18:37;100843.66;;;17.18;37.46
40908;BME280;51055;59.436;24.778;2023-04-23T12:21:09;100844.50;;;17.18;37.56
40908;BME280;51055;59.436;24.778;2023-04-23T12:23:38;100840.69;;;17.21;39.03
40908;BME280;51055;59.436;24.778;2023-04-23T12:26:13;100834.97;;;17.16;37.31
40908;BME280;51055;59.436;24.778;2023-04-23T12:28:54;100836.66;;;17.25;37.06
40908;BME280;51055;59.436;24.778;2023-04-23T12:31:26;100830.31;;;17.34;37.05
40908;BME280;51055;59.436;24.778;2023-04-23T12:34:08;100833.66;;;17.28;37.24
40908;BME280;51055;59.436;24.778;2023-04-23T12:36:36;100822.78;;;17.30;37.60
40908;BME280;51055;59.436;24.778;2023-04-23T12:39:24;100811.41;;;17.36;37.71
40908;BME280;51055;59.436;24.778;2023-04-23T12:41:58;100812.25;;;17.44;36.74
40908;BME280;51055;59.436;24.778;2023-04-23T12:44:27;100797.84;;;17.37;39.73
40908;BME280;51055;59.436;24.778;2023-04-23T12:46:59;100815.44;;;17.40;36.46
40908;BME280;51055;59.436;24.778;2023-04-23T12:49:30;100801.72;;;17.43;35.98
40908;BME280;51055;59.436;24.778;2023-04-23T12:51:58;100792.81;;;17.42;36.88
40908;BME280;51055;59.436;24.778;2023-04-23T12:54:31;100799.50;;;17.38;36.87
40908;BME280;51055;59.436;24.778;2023-04-23T12:56:59;100796.16;;;17.44;36.70
40908;BME280;51055;59.436;24.778;2023-04-23T12:59:30;100793.22;;;17.55;36.87
40908;BME280;51055;59.436;24.778;2023-04-23T13:01:58;100791.38;;;17.56;37.18
40908;BME280;51055;59.436;24.778;2023-04-23T13:04:32;100784.50;;;17.61;36.98
40908;BME280;51055;59.436;24.778;2023-04-23T13:07:00;100780.81;;;17.62;36.47
40908;BME280;51055;59.436;24.778;2023-04-23T13:09:28;100781.50;;;17.64;36.28